Hawthorn Woods, Illinois
Current Conditions -  °F | °C
As of 3:06 PM on Friday 28 Nov 2014 (Local Time) from KPWK Reporting Station
Broken Clouds Broken Clouds  
Wind Chill: 21°   Ceiling: 2300
Heat Index: 30°   Visibility: 10mi
Dew Point: 21°   Wind: 12mph
Humidity: 69%   Direction: 170°S
Pressure: 30.01"   Gusts: NA
Location:  42.201°N, 88.0504°W
Report Text: KPWK 282106Z 17010KT 10SM BKN023 M01/M06 A3001 RMK AO2 T10111061
Loading
Personal Weather Stations






























Interactive Weather Map New forecast layout! Learn more

10-Day Weather Forecast

Advertisements
Track Severe Weather on mobile